首页
METAR-TAF:

METAR-TAF

机场 :

Pipestone Municipal Airport

Pipestone, 明尼蘇達州, 美国

纬度: 43-59N, 经度: 096-19W, 海拔: 529米

当前天气观测

该预报发布于24分钟前的06:37 UTC
风速5节,风向
温度 4°C
湿度 93%
气压 1015 hPa
能見度: 16.1公里
阴天层高于2500英尺

METAR: KPQN 170637Z AUTO 35005KT 10SM OVC025 04/03 A2996 RMK AO2 P0001

时间: 01:01 (07:01 UTC)


TAF: 丢失

超过4000个机场的气象观测和天气预报(METAR&TAF报告)。

可查询的气象台以黄色和红色小点在地图上表示。

将鼠标移到小点上方,可查看气象台名称。

然后点击查看天气观测和预报。

如需切换地图:点击带黑十字的绿色按钮放大地图;点击带横线的绿色按钮缩小地图;或者点击绿色箭头查看邻近地区的地图。


METAR-TAF: